createdAt,value
2022-11-11T00:02:16.823Z,102408.00
2022-11-11T00:05:19.280Z,102406.59
2022-11-11T00:08:21.395Z,102406.44
2022-11-11T00:11:23.779Z,102400.75
2022-11-11T00:14:25.927Z,102397.19
2022-11-11T00:17:46.747Z,102390.47
2022-11-11T00:21:07.936Z,102389.66
2022-11-11T00:24:50.807Z,102387.75
2022-11-11T00:27:53.024Z,102404.69
2022-11-11T00:31:06.648Z,102396.56
2022-11-11T00:34:08.911Z,102416.41
2022-11-11T00:37:11.153Z,102418.78
2022-11-11T00:40:14.890Z,102417.75
2022-11-11T00:43:16.944Z,102411.22
2022-11-11T00:46:37.629Z,102415.91
2022-11-11T00:49:58.997Z,102418.38
2022-11-11T00:53:04.972Z,102418.38
2022-11-11T00:56:07.591Z,102408.28
2022-11-11T00:59:10.317Z,102424.03
2022-11-11T01:02:12.905Z,102409.09
2022-11-11T01:05:15.451Z,102411.31
2022-11-11T01:08:17.904Z,102407.22
2022-11-11T01:11:23.167Z,102398.22
2022-11-11T01:14:25.150Z,102394.16
2022-11-11T01:17:29.734Z,102382.16
2022-11-11T01:20:32.396Z,102376.75
2022-11-11T01:23:38.888Z,102379.72
2022-11-11T01:26:42.137Z,102382.44
2022-11-11T01:29:46.466Z,102381.88
2022-11-11T01:32:48.967Z,102370.44
2022-11-11T01:35:53.729Z,102367.72
2022-11-11T01:38:59.638Z,102374.00
2022-11-11T01:42:05.267Z,102378.31
2022-11-11T01:45:47.012Z,102382.13
2022-11-11T01:49:15.461Z,102378.06
2022-11-11T01:52:43.219Z,102387.06
2022-11-11T01:55:46.494Z,102394.09
2022-11-11T01:58:52.466Z,102387.38
2022-11-11T02:01:54.899Z,102387.03
2022-11-11T02:05:17.137Z,102380.25
2022-11-11T02:08:34.575Z,102400.94
2022-11-11T02:12:00.447Z,102404.50
2022-11-11T02:15:03.508Z,102404.84
2022-11-11T02:18:07.632Z,102412.66
2022-11-11T02:21:32.608Z,102412.47
2022-11-11T02:24:35.490Z,102423.06
2022-11-11T02:27:45.271Z,102418.69
2022-11-11T02:30:50.828Z,102411.06
2022-11-11T02:34:00.256Z,102423.00
2022-11-11T02:37:09.776Z,102434.72
2022-11-11T02:40:33.543Z,102426.03
2022-11-11T02:43:36.568Z,102431.22
2022-11-11T02:46:40.014Z,102420.88
2022-11-11T02:49:47.824Z,102428.47
2022-11-11T02:52:50.124Z,102420.56
2022-11-11T02:55:52.901Z,102412.16
2022-11-11T02:58:58.717Z,102412.72
2022-11-11T03:02:02.248Z,102415.94
2022-11-11T03:05:10.316Z,102418.41
2022-11-11T03:08:15.948Z,102431.72
2022-11-11T03:11:28.195Z,102433.16
2022-11-11T03:14:34.209Z,102421.63
2022-11-11T03:17:40.792Z,102420.59
2022-11-11T03:21:35.598Z,102415.44
2022-11-11T03:24:46.957Z,102416.28
2022-11-11T03:27:49.796Z,102414.63
2022-11-11T03:30:54.080Z,102411.34
2022-11-11T03:34:18.815Z,102413.78
2022-11-11T03:37:42.827Z,102402.13
2022-11-11T03:40:48.114Z,102397.22
2022-11-11T03:43:50.692Z,102395.88
2022-11-11T03:46:53.421Z,102379.81
2022-11-11T03:49:56.205Z,102382.56
2022-11-11T03:52:59.156Z,102390.16
2022-11-11T03:56:02.187Z,102386.38
2022-11-11T03:59:04.815Z,102364.09
2022-11-11T04:02:32.768Z,102357.00
2022-11-11T04:05:57.988Z,102368.94
2022-11-11T04:09:22.174Z,102370.03
2022-11-11T04:12:27.038Z,102372.22
2022-11-11T04:16:04.793Z,102365.41
2022-11-11T04:19:26.003Z,102376.84
2022-11-11T04:22:28.825Z,102382.00
2022-11-11T04:25:55.821Z,102375.50
2022-11-11T04:29:17.228Z,102367.59
2022-11-11T04:32:40.236Z,102374.94
2022-11-11T04:35:43.384Z,102371.94
2022-11-11T04:39:05.140Z,102381.72
2022-11-11T04:42:10.670Z,102381.75
2022-11-11T04:45:34.071Z,102383.38
2022-11-11T04:48:38.274Z,102387.19
2022-11-11T04:51:59.670Z,102392.06
2022-11-11T04:55:37.574Z,102385.00
2022-11-11T04:58:40.286Z,102381.72
2022-11-11T05:02:05.094Z,102393.19
2022-11-11T05:05:07.964Z,102387.16
2022-11-11T05:08:31.764Z,102391.53
2022-11-11T05:11:40.360Z,102395.31
2022-11-11T05:15:05.308Z,102393.72
2022-11-11T05:18:36.245Z,102393.44
2022-11-11T05:21:42.467Z,102392.59
2022-11-11T05:25:04.750Z,102386.63
2022-11-11T05:28:08.189Z,102388.53
2022-11-11T05:31:13.758Z,102396.97
2022-11-11T05:34:17.005Z,102397.78
2022-11-11T05:37:22.771Z,102396.72
2022-11-11T05:40:31.586Z,102411.94
2022-11-11T05:43:37.621Z,102428.00
2022-11-11T05:46:40.207Z,102440.50
2022-11-11T05:49:45.211Z,102454.38
2022-11-11T05:52:53.944Z,102460.63
2022-11-11T05:55:56.885Z,102452.19
2022-11-11T05:59:00.728Z,102443.22
2022-11-11T06:02:04.865Z,102432.91
2022-11-11T06:05:08.818Z,102447.56
2022-11-11T06:08:11.490Z,102444.56
2022-11-11T06:11:17.144Z,102448.38
2022-11-11T06:14:22.991Z,102458.72
2022-11-11T06:17:28.672Z,102457.09
2022-11-11T06:20:38.274Z,102462.81
2022-11-11T06:23:47.366Z,102451.38
2022-11-11T06:26:56.053Z,102455.19
2022-11-11T06:30:36.765Z,102461.44
2022-11-11T06:33:29.855Z,102468.50
2022-11-11T06:36:33.579Z,102467.72
2022-11-11T06:39:42.829Z,102465.81
2022-11-11T06:42:48.453Z,102468.25
2022-11-11T06:45:56.952Z,102465.78
2022-11-11T06:49:02.990Z,102465.78
2022-11-11T06:52:06.270Z,102462.25
2022-11-11T06:55:09.474Z,102456.53
2022-11-11T06:58:17.649Z,102458.72
2022-11-11T07:01:20.920Z,102455.19
2022-11-11T07:04:30.756Z,102454.38
2022-11-11T07:07:39.549Z,102451.91
2022-11-11T07:10:48.475Z,102452.19
2022-11-11T07:13:51.321Z,102453.28
2022-11-11T07:17:03.379Z,102469.34
2022-11-11T07:20:10.180Z,102470.69
2022-11-11T07:23:19.238Z,102467.41
2022-11-11T07:26:21.846Z,102482.66
2022-11-11T07:29:29.310Z,102470.69
2022-11-11T07:32:35.368Z,102472.06
2022-11-11T07:35:43.939Z,102475.31
2022-11-11T07:38:52.010Z,102472.06
2022-11-11T07:41:58.069Z,102470.97
2022-11-11T07:45:01.475Z,102482.66
2022-11-11T07:48:10.009Z,102487.56
2022-11-11T07:51:18.454Z,102494.38
2022-11-11T07:54:21.957Z,102489.19
2022-11-11T07:57:25.377Z,102494.38
2022-11-11T08:00:32.029Z,102494.06
2022-11-11T08:03:49.875Z,102500.59
2022-11-11T08:07:00.059Z,102507.69
2022-11-11T08:10:06.793Z,102515.31
2022-11-11T08:13:31.597Z,102518.28
2022-11-11T08:16:36.943Z,102512.56
2022-11-11T08:19:42.180Z,102517.19
2022-11-11T08:23:07.105Z,102519.88
2022-11-11T08:26:09.921Z,102523.69
2022-11-11T08:29:15.803Z,102526.94
2022-11-11T08:32:18.322Z,102542.41
2022-11-11T08:35:20.619Z,102542.94
2022-11-11T08:38:23.795Z,102542.38
2022-11-11T08:41:26.363Z,102546.72
2022-11-11T08:44:28.518Z,102547.50
2022-11-11T08:47:30.704Z,102546.34
2022-11-11T08:50:32.766Z,102558.84
2022-11-11T08:53:35.102Z,102549.91
2022-11-11T08:56:37.109Z,102561.03
2022-11-11T08:59:39.476Z,102568.09
2022-11-11T09:02:41.481Z,102578.91
2022-11-11T09:05:44.295Z,102576.28
2022-11-11T09:08:46.787Z,102586.22
2022-11-11T09:11:48.577Z,102576.50
2022-11-11T09:14:50.719Z,102578.84
2022-11-11T09:17:54.110Z,102576.72
2022-11-11T09:21:01.024Z,102580.28
2022-11-11T09:24:02.807Z,102588.81
2022-11-11T09:27:04.721Z,102586.34
2022-11-11T09:30:09.828Z,102591.59
2022-11-11T09:33:12.629Z,102590.81
2022-11-11T09:36:14.571Z,102582.25
2022-11-11T09:39:16.601Z,102591.00
2022-11-11T09:42:41.900Z,102602.50
2022-11-11T09:46:05.223Z,102601.59
2022-11-11T09:49:09.840Z,102607.53
2022-11-11T09:52:26.449Z,102611.38
2022-11-11T09:55:39.943Z,102623.91
2022-11-11T09:58:51.780Z,102619.44
2022-11-11T10:01:59.057Z,102624.00
2022-11-11T10:05:10.380Z,102629.69
2022-11-11T10:08:23.327Z,102628.41
2022-11-11T10:11:37.427Z,102639.78
2022-11-11T10:14:49.401Z,102637.47
2022-11-11T10:18:06.522Z,102633.53
2022-11-11T10:21:21.135Z,102625.03
2022-11-11T10:24:33.410Z,102624.22
2022-11-11T10:27:46.486Z,102624.91
2022-11-11T10:30:52.420Z,102622.09
2022-11-11T10:34:11.286Z,102618.69
2022-11-11T10:37:41.421Z,102619.94
2022-11-11T10:40:54.331Z,102610.09
2022-11-11T10:43:56.558Z,102619.38
2022-11-11T10:47:42.617Z,102623.53
2022-11-11T10:50:55.325Z,102614.59
2022-11-11T10:54:09.541Z,102616.16
2022-11-11T10:57:36.686Z,102621.22
2022-11-11T11:00:44.243Z,102612.88
2022-11-11T11:04:31.433Z,102611.97
2022-11-11T11:08:00.300Z,102607.13
2022-11-11T11:11:28.183Z,102600.34
2022-11-11T11:14:36.938Z,102592.81
2022-11-11T11:17:59.068Z,102594.91
2022-11-11T11:21:06.200Z,102581.31
2022-11-11T11:24:31.798Z,102584.94
2022-11-11T11:27:33.771Z,102575.47
2022-11-11T11:30:36.018Z,102577.72
2022-11-11T11:33:57.092Z,102577.25
2022-11-11T11:37:02.541Z,102572.88
2022-11-11T11:40:08.158Z,102579.25
2022-11-11T11:43:43.463Z,102573.19
2022-11-11T11:46:46.764Z,102568.88
2022-11-11T11:50:26.437Z,102564.00
2022-11-11T11:54:13.430Z,102563.03
2022-11-11T11:57:48.477Z,102562.06
2022-11-11T12:01:11.301Z,102568.22
2022-11-11T12:04:44.153Z,102560.97
2022-11-11T12:08:36.504Z,102576.06
2022-11-11T12:11:46.640Z,102573.09
2022-11-11T12:15:17.150Z,102566.06
2022-11-11T12:18:31.248Z,102556.00
2022-11-11T12:22:07.776Z,102552.31
2022-11-11T12:25:30.542Z,102554.09
2022-11-11T12:28:43.672Z,102553.00
2022-11-11T12:32:36.472Z,102561.41
2022-11-11T12:36:12.286Z,102551.34
2022-11-11T12:39:40.841Z,102563.03
2022-11-11T12:43:33.327Z,102561.78
2022-11-11T12:46:51.935Z,102564.66
2022-11-11T12:50:07.525Z,102563.53
2022-11-11T12:53:30.617Z,102558.59
2022-11-11T12:56:57.220Z,102557.88
2022-11-11T13:00:10.599Z,102557.56
2022-11-11T13:03:30.802Z,102558.47
2022-11-11T13:06:58.461Z,102560.47
2022-11-11T13:10:27.229Z,102556.28
2022-11-11T13:14:14.469Z,102550.25
2022-11-11T13:17:16.451Z,102541.00
2022-11-11T13:20:36.690Z,102549.16
2022-11-11T13:23:38.640Z,102537.75
2022-11-11T13:26:54.743Z,102539.28
2022-11-11T13:30:39.331Z,102551.53
2022-11-11T13:33:48.687Z,102539.59
2022-11-11T13:36:55.901Z,102548.25
2022-11-11T13:40:08.520Z,102543.59
2022-11-11T13:43:26.257Z,102541.75
2022-11-11T13:46:49.830Z,102543.69
2022-11-11T13:50:28.105Z,102541.59
2022-11-11T13:53:37.776Z,102543.84
2022-11-11T13:56:46.950Z,102537.63
2022-11-11T14:00:18.202Z,102542.44
2022-11-11T14:03:20.508Z,102540.09
2022-11-11T14:06:29.293Z,102539.84
2022-11-11T14:10:02.966Z,102541.13
2022-11-11T14:13:26.575Z,102547.94
2022-11-11T14:16:35.064Z,102549.50
2022-11-11T14:19:37.180Z,102537.19
2022-11-11T14:22:39.425Z,102548.47
2022-11-11T14:25:42.327Z,102551.31
2022-11-11T14:29:00.766Z,102547.69
2022-11-11T14:33:06.601Z,102549.03
2022-11-11T14:36:43.040Z,102551.47
2022-11-11T14:39:55.833Z,102550.50
2022-11-11T14:43:00.799Z,102547.19
2022-11-11T14:46:17.788Z,102550.50
2022-11-11T14:49:55.973Z,102559.78
2022-11-11T14:53:25.395Z,102567.00
2022-11-11T14:56:29.054Z,102563.00
2022-11-11T14:59:34.933Z,102564.41
2022-11-11T15:03:11.293Z,102567.59
2022-11-11T15:06:33.824Z,102567.19
2022-11-11T15:10:00.729Z,102569.59
2022-11-11T15:13:47.550Z,102568.78
2022-11-11T15:17:10.681Z,102567.59
2022-11-11T15:20:56.360Z,102573.56
2022-11-11T15:24:21.351Z,102574.28
2022-11-11T15:28:13.846Z,102574.63
2022-11-11T15:31:59.247Z,102573.22
2022-11-11T15:35:27.374Z,102571.13
2022-11-11T15:38:30.369Z,102568.88
2022-11-11T15:41:40.348Z,102571.03
2022-11-11T15:44:42.577Z,102577.94
2022-11-11T15:47:46.830Z,102574.44
2022-11-11T15:50:49.241Z,102586.31
2022-11-11T15:53:51.253Z,102584.16
2022-11-11T15:56:55.242Z,102581.34
2022-11-11T16:00:00.593Z,102586.88
2022-11-11T16:03:03.472Z,102583.81
2022-11-11T16:06:12.655Z,102583.75
2022-11-11T16:09:24.533Z,102579.97
2022-11-11T16:12:39.970Z,102586.81
2022-11-11T16:16:00.051Z,102586.16
2022-11-11T16:19:21.574Z,102591.81
2022-11-11T16:22:32.359Z,102584.84
2022-11-11T16:25:34.802Z,102585.34
2022-11-11T16:28:54.489Z,102588.81
2022-11-11T16:31:56.428Z,102595.59
2022-11-11T16:34:58.282Z,102591.50
2022-11-11T16:38:00.283Z,102593.84
2022-11-11T16:41:02.399Z,102591.84
2022-11-11T16:44:04.539Z,102592.72
2022-11-11T16:47:32.329Z,102597.63
2022-11-11T16:50:59.464Z,102594.19
2022-11-11T16:54:30.935Z,102602.28
2022-11-11T16:57:34.774Z,102595.56
2022-11-11T17:00:38.871Z,102599.72
2022-11-11T17:03:58.644Z,102593.91
2022-11-11T17:07:00.631Z,102601.50
2022-11-11T17:10:09.141Z,102595.09
2022-11-11T17:13:11.412Z,102594.28
2022-11-11T17:16:14.404Z,102597.13
2022-11-11T17:19:16.296Z,102604.59
2022-11-11T17:22:18.217Z,102604.31
2022-11-11T17:25:20.522Z,102608.69
2022-11-11T17:28:24.057Z,102608.66
2022-11-11T17:31:26.090Z,102607.78
2022-11-11T17:34:28.114Z,102607.78
2022-11-11T17:37:38.201Z,102612.44
2022-11-11T17:40:48.129Z,102603.34
2022-11-11T17:43:50.591Z,102604.41
2022-11-11T17:46:52.887Z,102601.41
2022-11-11T17:49:59.005Z,102603.09
2022-11-11T17:53:02.742Z,102601.78
2022-11-11T17:56:06.408Z,102611.28
2022-11-11T17:59:08.667Z,102610.66
2022-11-11T18:02:13.367Z,102615.63
2022-11-11T18:05:15.955Z,102618.34
2022-11-11T18:08:17.963Z,102610.72
2022-11-11T18:11:23.026Z,102615.75
2022-11-11T18:14:28.311Z,102623.31
2022-11-11T18:17:30.495Z,102631.88
2022-11-11T18:20:33.484Z,102621.03
2022-11-11T18:23:40.684Z,102622.44
2022-11-11T18:26:46.586Z,102625.75
2022-11-11T18:29:49.347Z,102626.00
2022-11-11T18:32:51.765Z,102626.03
2022-11-11T18:35:54.337Z,102625.22
2022-11-11T18:38:56.861Z,102625.75
2022-11-11T18:41:59.249Z,102629.28
2022-11-11T18:45:01.786Z,102628.81
2022-11-11T18:48:06.849Z,102629.91
2022-11-11T18:51:14.766Z,102628.78
2022-11-11T18:54:30.170Z,102635.06
2022-11-11T18:57:33.541Z,102637.28
2022-11-11T19:00:38.525Z,102645.13
2022-11-11T19:03:42.628Z,102643.25
2022-11-11T19:06:46.485Z,102644.63
2022-11-11T19:09:49.094Z,102649.22
2022-11-11T19:12:54.564Z,102656.34
2022-11-11T19:15:57.444Z,102663.16
2022-11-11T19:19:07.201Z,102658.78
2022-11-11T19:22:10.021Z,102659.09
2022-11-11T19:25:15.797Z,102656.06
2022-11-11T19:28:18.473Z,102662.09
2022-11-11T19:31:27.082Z,102666.97
2022-11-11T19:34:37.642Z,102666.97
2022-11-11T19:37:40.405Z,102675.41
2022-11-11T19:40:47.251Z,102672.41
2022-11-11T19:43:54.080Z,102672.69
2022-11-11T19:47:02.251Z,102677.03
2022-11-11T19:50:05.469Z,102677.88
2022-11-11T19:53:13.977Z,102678.44
2022-11-11T19:56:23.815Z,102684.41
2022-11-11T19:59:31.876Z,102689.03
2022-11-11T20:02:37.562Z,102677.28
2022-11-11T20:05:40.080Z,102689.56
2022-11-11T20:08:47.849Z,102693.13
2022-11-11T20:11:53.017Z,102685.50
2022-11-11T20:15:02.354Z,102702.84
2022-11-11T20:18:12.957Z,102700.97
2022-11-11T20:21:18.304Z,102699.34
2022-11-11T20:24:27.721Z,102693.81
2022-11-11T20:27:36.266Z,102703.06
2022-11-11T20:30:46.476Z,102709.91
2022-11-11T20:33:57.311Z,102708.53
2022-11-11T20:37:09.294Z,102717.00
2022-11-11T20:40:14.611Z,102710.13
2022-11-11T20:43:24.834Z,102714.88
2022-11-11T20:46:31.474Z,102718.16
2022-11-11T20:49:45.168Z,102718.13
2022-11-11T20:52:48.058Z,102716.16
2022-11-11T20:55:54.930Z,102715.53
2022-11-11T20:59:03.738Z,102704.88
2022-11-11T21:02:08.732Z,102712.19
2022-11-11T21:05:14.879Z,102715.72
2022-11-11T21:08:29.967Z,102718.63
2022-11-11T21:11:35.439Z,102714.69
2022-11-11T21:14:46.847Z,102717.03
2022-11-11T21:17:52.726Z,102719.81
2022-11-11T21:20:56.118Z,102727.22
2022-11-11T21:24:07.244Z,102727.03
2022-11-11T21:27:13.175Z,102726.13
2022-11-11T21:30:19.553Z,102730.81
2022-11-11T21:33:25.114Z,102731.63
2022-11-11T21:36:33.381Z,102733.22
2022-11-11T21:39:39.551Z,102739.38
2022-11-11T21:42:48.280Z,102732.00
2022-11-11T21:45:54.345Z,102727.69
2022-11-11T21:48:57.689Z,102738.59
2022-11-11T21:52:04.131Z,102742.59
2022-11-11T21:55:13.388Z,102732.63
2022-11-11T21:58:29.762Z,102731.97
2022-11-11T22:01:44.152Z,102740.66
2022-11-11T22:04:52.882Z,102745.84
2022-11-11T22:07:56.412Z,102746.31
2022-11-11T22:11:16.041Z,102738.28
2022-11-11T22:14:19.236Z,102741.53
2022-11-11T22:17:28.108Z,102739.97
2022-11-11T22:20:33.641Z,102738.06
2022-11-11T22:23:41.972Z,102751.38
2022-11-11T22:26:51.509Z,102748.56
2022-11-11T22:29:57.251Z,102754.19
2022-11-11T22:32:59.696Z,102754.78
2022-11-11T22:36:12.142Z,102748.47
2022-11-11T22:39:14.987Z,102754.84
2022-11-11T22:42:20.615Z,102755.41
2022-11-11T22:45:32.328Z,102749.56
2022-11-11T22:48:37.192Z,102751.19
2022-11-11T22:51:45.193Z,102747.63
2022-11-11T22:54:54.151Z,102753.59
2022-11-11T22:58:02.727Z,102744.34
2022-11-11T23:01:10.986Z,102755.59
2022-11-11T23:04:13.687Z,102752.28
2022-11-11T23:07:16.383Z,102750.94
2022-11-11T23:10:19.030Z,102745.53
2022-11-11T23:13:20.902Z,102743.41
2022-11-11T23:16:23.212Z,102743.81
2022-11-11T23:19:28.196Z,102740.84
2022-11-11T23:22:30.548Z,102738.13
2022-11-11T23:25:34.398Z,102743.66
2022-11-11T23:28:39.308Z,102736.16
2022-11-11T23:31:41.539Z,102740.59
2022-11-11T23:34:43.584Z,102738.94
2022-11-11T23:37:45.663Z,102750.34
2022-11-11T23:40:47.653Z,102735.59
2022-11-11T23:43:50.022Z,102741.41
2022-11-11T23:46:52.445Z,102738.69
2022-11-11T23:49:54.125Z,102735.44
2022-11-11T23:52:56.182Z,102736.25
2022-11-11T23:55:58.844Z,102736.28
2022-11-11T23:59:00.943Z,102738.16
